XNO56T DTNH-EGGD
Flight info
| Callsign | XNO56T |
|---|---|
| Flight time | 2h 44m |
| Altitude | 40000 |
| Route | VAXAL1C VAXAL A411 TUC UA725 OSMAR DCT PIRIX DCT INDUM DCT UPDUT DCT CORSI DCT OMEDA DCT MERLU DCT PIGOS DCT BARSO DCT OKTET DCT GIPNO DCT BULOL DCT IDAVO DCT BAGBI DCT SIZZA DCT LAULY DCT BRY DCT CLM DCT KOPOR DCT KESAX DCT KUNAV T421 ICTAM L179 SAWPE |
| Aircraft | A35K/H-SDE2E3GHIJ3J4J5LM1ORWXY/LB1D1 |
Departure
| Time | 2026-04-21 09:17 |
|---|---|
| Airport | Enfidha - Hammamet International Airport (DTNH) |
Arrival
| Time | 2026-04-21 12:01 |
|---|---|
| Airport | Bristol Airport (EGGD) |
| Time | Latitude | Longitude | Altitude | Speed | Heading |
|---|---|---|---|---|---|
| 2026-04-21 08:00 | 36.07952 | 10.43618 | 25 ft | 0 kts | 180° |
| 2026-04-21 09:04 | 36.07961 | 10.43618 | 26 ft | 4 kts | 180° |
| 2026-04-21 09:04 | 36.07988 | 10.43619 | 30 ft | 4 kts | 180° |
| 2026-04-21 09:04 | 36.08015 | 10.43619 | 30 ft | 4 kts | 180° |
| 2026-04-21 09:04 | 36.08039 | 10.43618 | 30 ft | 4 kts | 162° |
| 2026-04-21 09:05 | 36.08056 | 10.43603 | 30 ft | 4 kts | 95° |
| 2026-04-21 09:05 | 36.08052 | 10.43571 | 30 ft | 4 kts | 72° |
| 2026-04-21 09:05 | 36.08045 | 10.43540 | 30 ft | 2 kts | 89° |
| 2026-04-21 09:05 | 36.08045 | 10.43538 | 30 ft | 0 kts | 90° |
| 2026-04-21 09:08 | 36.08045 | 10.43539 | 30 ft | 1 kts | 90° |
| 2026-04-21 09:08 | 36.08045 | 10.43564 | 25 ft | 5 kts | 92° |
| 2026-04-21 09:09 | 36.08044 | 10.43622 | 24 ft | 9 kts | 91° |
| 2026-04-21 09:09 | 36.08043 | 10.43711 | 24 ft | 12 kts | 90° |
| 2026-04-21 09:09 | 36.07994 | 10.43787 | 28 ft | 13 kts | 166° |
| 2026-04-21 09:09 | 36.07938 | 10.43794 | 27 ft | 7 kts | 175° |
| 2026-04-21 09:10 | 36.07926 | 10.43794 | 25 ft | 0 kts | 180° |
| 2026-04-21 09:10 | 36.07922 | 10.43794 | 26 ft | 2 kts | 180° |
| 2026-04-21 09:11 | 36.07894 | 10.43794 | 28 ft | 6 kts | 180° |
| 2026-04-21 09:11 | 36.07840 | 10.43793 | 28 ft | 10 kts | 180° |
| 2026-04-21 09:11 | 36.07778 | 10.43783 | 28 ft | 10 kts | 205° |
| 2026-04-21 09:11 | 36.07749 | 10.43704 | 26 ft | 12 kts | 264° |
| 2026-04-21 09:12 | 36.07747 | 10.43589 | 24 ft | 15 kts | 270° |
| 2026-04-21 09:12 | 36.07748 | 10.43448 | 25 ft | 18 kts | 270° |
| 2026-04-21 09:12 | 36.07748 | 10.43286 | 25 ft | 20 kts | 270° |
| 2026-04-21 09:12 | 36.07748 | 10.43102 | 25 ft | 23 kts | 270° |
| 2026-04-21 09:13 | 36.07750 | 10.42900 | 26 ft | 25 kts | 270° |
| 2026-04-21 09:13 | 36.07751 | 10.42680 | 27 ft | 27 kts | 270° |
| 2026-04-21 09:13 | 36.07752 | 10.42444 | 27 ft | 28 kts | 270° |
| 2026-04-21 09:13 | 36.07754 | 10.42242 | 28 ft | 22 kts | 270° |
| 2026-04-21 09:14 | 36.07752 | 10.42097 | 28 ft | 8 kts | 258° |
| 2026-04-21 09:14 | 36.07707 | 10.42050 | 28 ft | 9 kts | 194° |
| 2026-04-21 09:14 | 36.07660 | 10.42046 | 28 ft | 2 kts | 182° |
| 2026-04-21 09:14 | 36.07630 | 10.42046 | 28 ft | 6 kts | 180° |
| 2026-04-21 09:15 | 36.07589 | 10.42069 | 28 ft | 7 kts | 124° |
| 2026-04-21 09:15 | 36.07585 | 10.42136 | 28 ft | 9 kts | 91° |
| 2026-04-21 09:15 | 36.07584 | 10.42147 | 28 ft | 0 kts | 91° |
| 2026-04-21 09:17 | 36.07583 | 10.42350 | 27 ft | 63 kts | 90° |
| 2026-04-21 09:17 | 36.07579 | 10.43214 | 26 ft | 136 kts | 90° |
| 2026-04-21 09:17 | 36.07574 | 10.44611 | 275 ft | 173 kts | 90° |
| 2026-04-21 09:17 | 36.07730 | 10.46038 | 1111 ft | 168 kts | 63° |
| 2026-04-21 09:18 | 36.08638 | 10.47017 | 1572 ft | 191 kts | 17° |
| 2026-04-21 09:18 | 36.10024 | 10.46922 | 1870 ft | 215 kts | 337° |
| 2026-04-21 09:18 | 36.11476 | 10.46229 | 2421 ft | 233 kts | 341° |
| 2026-04-21 09:18 | 36.13137 | 10.45962 | 2965 ft | 255 kts | 1° |
| 2026-04-21 09:19 | 36.14925 | 10.46276 | 3781 ft | 263 kts | 8° |
| 2026-04-21 09:19 | 36.16741 | 10.46745 | 4645 ft | 269 kts | 9° |
| 2026-04-21 09:19 | 36.18586 | 10.47249 | 5504 ft | 273 kts | 9° |
| 2026-04-21 09:19 | 36.20455 | 10.47766 | 6456 ft | 276 kts | 9° |
| 2026-04-21 09:20 | 36.22341 | 10.48290 | 7426 ft | 279 kts | 9° |
| 2026-04-21 09:20 | 36.24237 | 10.48818 | 8472 ft | 280 kts | 9° |
| 2026-04-21 09:20 | 36.26147 | 10.49351 | 9528 ft | 283 kts | 9° |
| 2026-04-21 09:20 | 36.28097 | 10.49714 | 10408 ft | 287 kts | 358° |
| 2026-04-21 09:21 | 36.30139 | 10.49386 | 10844 ft | 308 kts | 343° |
| 2026-04-21 09:21 | 36.32257 | 10.48575 | 11205 ft | 330 kts | 337° |
| 2026-04-21 09:21 | 36.34464 | 10.47486 | 11622 ft | 350 kts | 335° |
| 2026-04-21 09:21 | 36.36734 | 10.46275 | 12331 ft | 359 kts | 334° |
| 2026-04-21 09:22 | 36.39048 | 10.45044 | 13142 ft | 365 kts | 335° |
| 2026-04-21 09:22 | 36.41421 | 10.43832 | 13937 ft | 372 kts | 336° |
| 2026-04-21 09:22 | 36.43843 | 10.42645 | 14696 ft | 376 kts | 336° |
| 2026-04-21 09:22 | 36.46296 | 10.41476 | 15521 ft | 379 kts | 336° |
| 2026-04-21 09:23 | 36.48766 | 10.40316 | 16412 ft | 381 kts | 336° |
| 2026-04-21 09:23 | 36.51252 | 10.39153 | 17285 ft | 384 kts | 336° |
| 2026-04-21 09:23 | 36.53764 | 10.37976 | 18124 ft | 387 kts | 336° |
| 2026-04-21 09:23 | 36.56295 | 10.36787 | 18866 ft | 392 kts | 336° |
| 2026-04-21 09:24 | 36.58858 | 10.35578 | 19580 ft | 396 kts | 336° |
| 2026-04-21 09:24 | 36.61443 | 10.34357 | 20345 ft | 399 kts | 336° |
| 2026-04-21 09:24 | 36.64053 | 10.33122 | 21124 ft | 403 kts | 336° |
| 2026-04-21 09:24 | 36.66659 | 10.31888 | 21875 ft | 408 kts | 336° |
| 2026-04-21 09:25 | 36.69322 | 10.30626 | 22635 ft | 412 kts | 336° |
| 2026-04-21 09:25 | 36.72020 | 10.29347 | 23401 ft | 416 kts | 336° |
| 2026-04-21 09:25 | 36.74741 | 10.28056 | 24057 ft | 421 kts | 336° |
| 2026-04-21 09:25 | 36.77485 | 10.26752 | 24691 ft | 424 kts | 336° |
| 2026-04-21 09:26 | 36.80259 | 10.25434 | 25333 ft | 428 kts | 336° |
| 2026-04-21 09:26 | 36.83060 | 10.24104 | 25964 ft | 433 kts | 336° |
| 2026-04-21 09:26 | 36.85938 | 10.22951 | 26597 ft | 438 kts | 341° |
| 2026-04-21 09:26 | 36.88893 | 10.21949 | 27236 ft | 442 kts | 342° |
| 2026-04-21 09:27 | 36.91883 | 10.20987 | 27854 ft | 446 kts | 343° |
| 2026-04-21 09:27 | 36.94907 | 10.20043 | 28476 ft | 450 kts | 343° |
| 2026-04-21 09:27 | 36.97965 | 10.19101 | 28982 ft | 455 kts | 343° |
| 2026-04-21 09:27 | 37.01054 | 10.18151 | 29575 ft | 459 kts | 343° |
| 2026-04-21 09:28 | 37.04165 | 10.17192 | 30140 ft | 462 kts | 343° |
| 2026-04-21 09:28 | 37.07293 | 10.16225 | 30613 ft | 465 kts | 343° |
| 2026-04-21 09:28 | 37.10449 | 10.15245 | 31087 ft | 468 kts | 342° |
| 2026-04-21 09:28 | 37.13618 | 10.14258 | 31539 ft | 470 kts | 342° |
| 2026-04-21 09:29 | 37.16801 | 10.13264 | 31990 ft | 472 kts | 342° |
| 2026-04-21 09:29 | 37.19988 | 10.12268 | 32621 ft | 469 kts | 342° |
| 2026-04-21 09:29 | 37.23102 | 10.11296 | 33289 ft | 466 kts | 342° |
| 2026-04-21 09:29 | 37.26241 | 10.10315 | 33932 ft | 463 kts | 342° |
| 2026-04-21 09:30 | 37.29360 | 10.09338 | 34456 ft | 461 kts | 342° |
| 2026-04-21 09:30 | 37.32470 | 10.08363 | 34914 ft | 460 kts | 342° |
| 2026-04-21 09:30 | 37.35578 | 10.07386 | 35328 ft | 460 kts | 342° |
| 2026-04-21 09:30 | 37.38682 | 10.06410 | 35714 ft | 460 kts | 342° |
| 2026-04-21 09:31 | 37.41789 | 10.05433 | 36108 ft | 460 kts | 342° |
| 2026-04-21 09:31 | 37.44891 | 10.04458 | 36483 ft | 460 kts | 342° |
| 2026-04-21 09:31 | 37.47989 | 10.03477 | 36850 ft | 459 kts | 342° |
| 2026-04-21 09:31 | 37.51087 | 10.02494 | 37226 ft | 459 kts | 342° |
| 2026-04-21 09:32 | 37.54187 | 10.01509 | 37594 ft | 458 kts | 342° |
| 2026-04-21 09:32 | 37.57279 | 10.00527 | 37941 ft | 458 kts | 342° |
| 2026-04-21 09:32 | 37.59328 | 9.99876 | 38144 ft | 458 kts | 342° |
| 2026-04-21 09:32 | 37.62416 | 9.98895 | 38477 ft | 458 kts | 342° |
| 2026-04-21 09:33 | 37.65505 | 9.97912 | 38755 ft | 458 kts | 342° |
| 2026-04-21 09:33 | 37.68607 | 9.96925 | 38866 ft | 462 kts | 342° |
| 2026-04-21 09:33 | 37.74888 | 9.94921 | 39023 ft | 469 kts | 342° |
| 2026-04-21 09:34 | 37.81250 | 9.92897 | 39145 ft | 474 kts | 342° |
| 2026-04-21 09:34 | 37.87671 | 9.90851 | 39221 ft | 477 kts | 342° |
| 2026-04-21 09:35 | 37.94128 | 9.88789 | 39251 ft | 479 kts | 342° |
| 2026-04-21 09:35 | 38.00606 | 9.86718 | 39248 ft | 481 kts | 342° |
| 2026-04-21 09:36 | 38.07093 | 9.84639 | 39244 ft | 481 kts | 342° |
| 2026-04-21 09:36 | 38.13583 | 9.82556 | 39238 ft | 481 kts | 342° |
| 2026-04-21 09:37 | 38.20079 | 9.80467 | 39236 ft | 481 kts | 342° |
| 2026-04-21 09:37 | 38.26569 | 9.78376 | 39265 ft | 481 kts | 342° |
| 2026-04-21 09:38 | 38.33059 | 9.76294 | 39260 ft | 481 kts | 342° |
| 2026-04-21 09:38 | 38.39558 | 9.74210 | 39250 ft | 481 kts | 342° |
| 2026-04-21 09:39 | 38.46050 | 9.72124 | 39261 ft | 481 kts | 342° |
| 2026-04-21 09:39 | 38.52546 | 9.70031 | 39273 ft | 481 kts | 342° |
| 2026-04-21 09:40 | 38.58991 | 9.67950 | 39276 ft | 480 kts | 342° |
| 2026-04-21 09:40 | 38.65468 | 9.65855 | 39277 ft | 480 kts | 342° |
| 2026-04-21 09:41 | 38.71949 | 9.63755 | 39274 ft | 480 kts | 342° |
| 2026-04-21 09:41 | 38.78430 | 9.61651 | 39282 ft | 480 kts | 342° |
| 2026-04-21 09:42 | 38.84903 | 9.59546 | 39288 ft | 480 kts | 342° |
| 2026-04-21 09:42 | 38.91347 | 9.57448 | 39412 ft | 475 kts | 342° |
| 2026-04-21 09:43 | 38.97732 | 9.55303 | 39571 ft | 474 kts | 341° |
| 2026-04-21 09:43 | 39.00915 | 9.54210 | 39683 ft | 474 kts | 341° |
| 2026-04-21 09:43 | 39.04098 | 9.53115 | 39798 ft | 474 kts | 341° |
| 2026-04-21 09:44 | 39.07284 | 9.52021 | 39917 ft | 474 kts | 341° |
| 2026-04-21 09:44 | 39.10473 | 9.50928 | 39970 ft | 475 kts | 341° |
| 2026-04-21 09:44 | 39.16861 | 9.48742 | 39967 ft | 475 kts | 341° |
| 2026-04-21 09:45 | 39.23248 | 9.46560 | 39970 ft | 475 kts | 341° |
| 2026-04-21 09:45 | 39.29637 | 9.44373 | 39970 ft | 475 kts | 341° |
| 2026-04-21 09:46 | 39.36027 | 9.42181 | 39969 ft | 475 kts | 341° |
| 2026-04-21 09:46 | 39.42411 | 9.39983 | 39967 ft | 475 kts | 341° |
| 2026-04-21 09:47 | 39.48792 | 9.37783 | 39977 ft | 474 kts | 341° |
| 2026-04-21 09:47 | 39.55171 | 9.35581 | 39971 ft | 474 kts | 341° |
| 2026-04-21 09:48 | 39.61543 | 9.33377 | 39974 ft | 474 kts | 341° |
| 2026-04-21 09:48 | 39.67912 | 9.31170 | 39977 ft | 474 kts | 341° |
| 2026-04-21 09:49 | 39.74269 | 9.28963 | 39975 ft | 473 kts | 341° |
| 2026-04-21 09:49 | 39.80622 | 9.26754 | 39975 ft | 472 kts | 341° |
| 2026-04-21 09:50 | 39.84821 | 9.25290 | 39976 ft | 472 kts | 341° |
| 2026-04-21 09:50 | 39.93267 | 9.22341 | 39977 ft | 472 kts | 341° |
| 2026-04-21 09:51 | 39.99606 | 9.20123 | 39978 ft | 471 kts | 341° |
| 2026-04-21 09:51 | 40.05945 | 9.17901 | 39977 ft | 471 kts | 341° |
| 2026-04-21 09:52 | 40.12279 | 9.15677 | 39993 ft | 471 kts | 341° |
| 2026-04-21 09:52 | 40.18605 | 9.13453 | 39976 ft | 471 kts | 341° |
| 2026-04-21 09:53 | 40.24935 | 9.11220 | 39971 ft | 470 kts | 341° |
| 2026-04-21 09:53 | 40.31255 | 9.08985 | 39974 ft | 471 kts | 341° |
| 2026-04-21 09:54 | 40.37570 | 9.06750 | 39968 ft | 470 kts | 340° |
| 2026-04-21 09:54 | 40.43843 | 9.04525 | 39968 ft | 470 kts | 340° |
| 2026-04-21 09:55 | 40.50196 | 9.02268 | 39970 ft | 470 kts | 340° |
| 2026-04-21 09:55 | 40.56462 | 9.00036 | 39976 ft | 470 kts | 340° |
| 2026-04-21 09:56 | 40.62774 | 8.97785 | 39966 ft | 469 kts | 340° |
| 2026-04-21 09:56 | 40.69076 | 8.95532 | 39963 ft | 469 kts | 340° |
| 2026-04-21 09:57 | 40.75375 | 8.93277 | 39964 ft | 469 kts | 340° |
| 2026-04-21 09:57 | 40.81676 | 8.91016 | 39967 ft | 469 kts | 340° |
| 2026-04-21 09:58 | 40.87963 | 8.88756 | 39961 ft | 468 kts | 340° |
| 2026-04-21 09:58 | 40.94248 | 8.86491 | 39955 ft | 468 kts | 340° |
| 2026-04-21 09:59 | 41.00733 | 8.85192 | 39961 ft | 476 kts | 352° |
| 2026-04-21 09:59 | 41.07367 | 8.84954 | 39956 ft | 478 kts | 354° |
| 2026-04-21 10:00 | 41.14016 | 8.84897 | 39956 ft | 478 kts | 354° |
| 2026-04-21 10:00 | 41.20619 | 8.84851 | 39952 ft | 477 kts | 354° |
| 2026-04-21 10:01 | 41.27129 | 8.83769 | 39954 ft | 467 kts | 340° |
| 2026-04-21 10:01 | 41.33340 | 8.81309 | 39950 ft | 465 kts | 338° |
| 2026-04-21 10:02 | 41.42526 | 8.77202 | 39957 ft | 464 kts | 336° |
| 2026-04-21 10:03 | 41.48647 | 8.74422 | 39948 ft | 464 kts | 336° |
| 2026-04-21 10:03 | 41.54772 | 8.71665 | 39947 ft | 464 kts | 337° |
| 2026-04-21 10:04 | 41.60905 | 8.68913 | 39957 ft | 465 kts | 337° |
| 2026-04-21 10:04 | 41.67051 | 8.66152 | 39976 ft | 466 kts | 337° |
| 2026-04-21 10:05 | 41.73196 | 8.63385 | 39973 ft | 466 kts | 337° |
| 2026-04-21 10:05 | 41.79342 | 8.60612 | 39973 ft | 466 kts | 337° |
| 2026-04-21 10:06 | 41.85485 | 8.57834 | 39965 ft | 466 kts | 337° |
| 2026-04-21 10:06 | 41.91630 | 8.55049 | 39965 ft | 466 kts | 337° |
| 2026-04-21 10:07 | 41.97777 | 8.52258 | 39962 ft | 466 kts | 337° |
| 2026-04-21 10:07 | 42.03882 | 8.49480 | 39963 ft | 466 kts | 337° |
| 2026-04-21 10:08 | 42.10023 | 8.46680 | 39979 ft | 466 kts | 336° |
| 2026-04-21 10:08 | 42.16172 | 8.43871 | 39950 ft | 467 kts | 336° |
| 2026-04-21 10:09 | 42.22319 | 8.41057 | 39944 ft | 467 kts | 336° |
| 2026-04-21 10:09 | 42.28470 | 8.38235 | 39944 ft | 467 kts | 336° |
| 2026-04-21 10:10 | 42.34443 | 8.34941 | 39946 ft | 461 kts | 329° |
| 2026-04-21 10:10 | 42.40104 | 8.30863 | 39946 ft | 461 kts | 327° |
| 2026-04-21 10:11 | 42.45706 | 8.26657 | 39946 ft | 460 kts | 327° |
| 2026-04-21 10:11 | 42.51302 | 8.22428 | 39939 ft | 460 kts | 327° |
| 2026-04-21 10:12 | 42.56903 | 8.18201 | 39946 ft | 461 kts | 327° |
| 2026-04-21 10:12 | 42.62504 | 8.13977 | 39946 ft | 461 kts | 327° |
| 2026-04-21 10:13 | 42.68043 | 8.09798 | 39948 ft | 450 kts | 327° |
| 2026-04-21 10:13 | 42.73489 | 8.05677 | 39948 ft | 446 kts | 327° |
| 2026-04-21 10:14 | 42.78919 | 8.01554 | 39947 ft | 447 kts | 327° |
| 2026-04-21 10:14 | 42.84310 | 7.97453 | 39949 ft | 447 kts | 327° |
| 2026-04-21 10:15 | 42.89739 | 7.93318 | 39946 ft | 447 kts | 327° |
| 2026-04-21 10:15 | 42.95162 | 7.89179 | 39938 ft | 445 kts | 327° |
| 2026-04-21 10:15 | 42.97831 | 7.87144 | 39958 ft | 432 kts | 327° |
| 2026-04-21 10:16 | 43.00424 | 7.85167 | 39952 ft | 421 kts | 327° |
| 2026-04-21 10:16 | 43.05505 | 7.81275 | 39945 ft | 416 kts | 326° |
| 2026-04-21 10:17 | 43.10459 | 7.77475 | 39942 ft | 403 kts | 326° |
| 2026-04-21 10:17 | 43.15361 | 7.73680 | 39943 ft | 410 kts | 326° |
| 2026-04-21 10:18 | 43.20395 | 7.69768 | 39935 ft | 422 kts | 326° |
| 2026-04-21 10:18 | 43.25584 | 7.65740 | 39937 ft | 434 kts | 327° |
| 2026-04-21 10:19 | 43.30902 | 7.61611 | 39933 ft | 445 kts | 327° |
| 2026-04-21 10:19 | 43.36353 | 7.57373 | 39942 ft | 455 kts | 327° |
| 2026-04-21 10:20 | 43.40960 | 7.53784 | 39937 ft | 460 kts | 327° |
| 2026-04-21 10:20 | 43.46539 | 7.49431 | 39936 ft | 461 kts | 327° |
| 2026-04-21 10:21 | 43.52125 | 7.45063 | 39933 ft | 461 kts | 327° |
| 2026-04-21 10:21 | 43.57712 | 7.40682 | 39934 ft | 461 kts | 327° |
| 2026-04-21 10:22 | 43.63291 | 7.36292 | 39937 ft | 461 kts | 327° |
| 2026-04-21 10:22 | 43.68685 | 7.31517 | 39939 ft | 460 kts | 323° |
| 2026-04-21 10:23 | 43.73957 | 7.26520 | 39939 ft | 460 kts | 322° |
| 2026-04-21 10:23 | 43.79222 | 7.21584 | 39937 ft | 460 kts | 323° |
| 2026-04-21 10:24 | 43.84544 | 7.16663 | 39935 ft | 460 kts | 323° |
| 2026-04-21 10:24 | 43.89879 | 7.11749 | 39925 ft | 460 kts | 323° |
| 2026-04-21 10:25 | 43.95214 | 7.06827 | 39924 ft | 461 kts | 323° |
| 2026-04-21 10:25 | 44.00557 | 7.01886 | 39915 ft | 461 kts | 323° |
| 2026-04-21 10:26 | 44.05896 | 6.96932 | 39919 ft | 462 kts | 323° |
| 2026-04-21 10:26 | 44.11237 | 6.91964 | 39918 ft | 462 kts | 323° |
| 2026-04-21 10:27 | 44.16573 | 6.86994 | 39918 ft | 462 kts | 323° |
| 2026-04-21 10:27 | 44.21903 | 6.82012 | 39920 ft | 461 kts | 323° |
| 2026-04-21 10:28 | 44.27233 | 6.77013 | 39920 ft | 461 kts | 323° |
| 2026-04-21 10:28 | 44.32567 | 6.72000 | 39920 ft | 461 kts | 323° |
| 2026-04-21 10:29 | 44.37888 | 6.66990 | 39925 ft | 461 kts | 323° |
| 2026-04-21 10:29 | 44.43170 | 6.62006 | 39945 ft | 461 kts | 323° |
| 2026-04-21 10:30 | 44.48485 | 6.56983 | 39931 ft | 460 kts | 323° |
| 2026-04-21 10:30 | 44.53799 | 6.51958 | 39933 ft | 460 kts | 323° |
| 2026-04-21 10:31 | 44.59102 | 6.46921 | 39934 ft | 460 kts | 323° |
| 2026-04-21 10:31 | 44.64403 | 6.41874 | 39934 ft | 461 kts | 323° |
| 2026-04-21 10:32 | 44.69712 | 6.36813 | 39937 ft | 461 kts | 323° |
| 2026-04-21 10:32 | 44.75014 | 6.31748 | 39943 ft | 461 kts | 323° |
| 2026-04-21 10:33 | 44.80318 | 6.26670 | 39936 ft | 461 kts | 323° |
| 2026-04-21 10:33 | 44.85616 | 6.21584 | 39947 ft | 461 kts | 323° |
| 2026-04-21 10:34 | 44.90921 | 6.16482 | 39953 ft | 461 kts | 323° |
| 2026-04-21 10:34 | 44.96225 | 6.11370 | 39951 ft | 462 kts | 323° |
| 2026-04-21 10:35 | 45.01530 | 6.06244 | 39966 ft | 462 kts | 323° |
| 2026-04-21 10:35 | 45.06787 | 6.01151 | 39964 ft | 461 kts | 323° |
| 2026-04-21 10:36 | 45.12075 | 5.96019 | 39975 ft | 461 kts | 323° |
| 2026-04-21 10:36 | 45.17361 | 5.90876 | 39982 ft | 461 kts | 323° |
| 2026-04-21 10:37 | 45.22642 | 5.85725 | 39984 ft | 461 kts | 323° |
| 2026-04-21 10:37 | 45.27928 | 5.80558 | 39988 ft | 461 kts | 323° |
| 2026-04-21 10:38 | 45.33210 | 5.75385 | 40000 ft | 461 kts | 323° |
| 2026-04-21 10:38 | 45.38485 | 5.70205 | 40008 ft | 461 kts | 323° |
| 2026-04-21 10:39 | 45.43755 | 5.65018 | 40013 ft | 461 kts | 323° |
| 2026-04-21 10:39 | 45.49034 | 5.59810 | 40017 ft | 462 kts | 323° |
| 2026-04-21 10:40 | 45.54316 | 5.54588 | 40016 ft | 461 kts | 323° |
| 2026-04-21 10:40 | 45.59643 | 5.49459 | 40014 ft | 462 kts | 325° |
| 2026-04-21 10:41 | 45.65122 | 5.44633 | 40027 ft | 463 kts | 326° |
| 2026-04-21 10:41 | 45.70618 | 5.39824 | 40019 ft | 463 kts | 326° |
| 2026-04-21 10:42 | 45.76095 | 5.34953 | 40019 ft | 463 kts | 325° |
| 2026-04-21 10:42 | 45.81546 | 5.30054 | 40022 ft | 463 kts | 325° |
| 2026-04-21 10:43 | 45.86967 | 5.25162 | 40029 ft | 463 kts | 325° |
| 2026-04-21 10:43 | 45.92428 | 5.20225 | 40022 ft | 464 kts | 325° |
| 2026-04-21 10:44 | 45.97887 | 5.15281 | 40023 ft | 464 kts | 325° |
| 2026-04-21 10:44 | 46.03355 | 5.10360 | 40022 ft | 465 kts | 327° |
| 2026-04-21 10:45 | 46.09184 | 5.06272 | 40033 ft | 467 kts | 332° |
| 2026-04-21 10:45 | 46.15125 | 5.02453 | 40033 ft | 468 kts | 333° |
| 2026-04-21 10:46 | 46.21085 | 4.98677 | 40032 ft | 468 kts | 333° |
| 2026-04-21 10:46 | 46.27045 | 4.94889 | 40034 ft | 468 kts | 333° |
| 2026-04-21 10:47 | 46.33000 | 4.91080 | 40035 ft | 468 kts | 333° |
| 2026-04-21 10:47 | 46.38958 | 4.87248 | 40031 ft | 468 kts | 333° |
| 2026-04-21 10:48 | 46.44875 | 4.83434 | 40032 ft | 468 kts | 333° |
| 2026-04-21 10:48 | 46.50828 | 4.79590 | 40039 ft | 468 kts | 333° |
| 2026-04-21 10:49 | 46.56786 | 4.75735 | 40039 ft | 468 kts | 333° |
| 2026-04-21 10:49 | 46.62742 | 4.71872 | 40038 ft | 468 kts | 333° |
| 2026-04-21 10:50 | 46.68693 | 4.68003 | 40042 ft | 468 kts | 333° |
| 2026-04-21 10:50 | 46.74642 | 4.64126 | 40049 ft | 468 kts | 333° |
| 2026-04-21 10:51 | 46.80595 | 4.60236 | 40047 ft | 468 kts | 333° |
| 2026-04-21 10:51 | 46.86539 | 4.56365 | 40045 ft | 469 kts | 333° |
| 2026-04-21 10:52 | 46.92507 | 4.52487 | 40050 ft | 468 kts | 333° |
| 2026-04-21 10:52 | 46.98458 | 4.48608 | 40049 ft | 469 kts | 333° |
| 2026-04-21 10:53 | 47.04412 | 4.44717 | 40049 ft | 469 kts | 333° |
| 2026-04-21 10:53 | 47.10372 | 4.40811 | 40065 ft | 469 kts | 333° |
| 2026-04-21 10:54 | 47.16330 | 4.36896 | 40057 ft | 469 kts | 333° |
| 2026-04-21 10:54 | 47.22278 | 4.32978 | 40062 ft | 469 kts | 333° |
| 2026-04-21 10:55 | 47.28193 | 4.29074 | 40057 ft | 469 kts | 333° |
| 2026-04-21 10:55 | 47.34177 | 4.25113 | 40072 ft | 469 kts | 333° |
| 2026-04-21 10:56 | 47.40128 | 4.21166 | 40073 ft | 469 kts | 333° |
| 2026-04-21 10:56 | 47.46027 | 4.17243 | 40073 ft | 464 kts | 333° |
| 2026-04-21 10:57 | 47.51844 | 4.13367 | 40081 ft | 456 kts | 333° |
| 2026-04-21 10:57 | 47.57620 | 4.09511 | 40086 ft | 455 kts | 333° |
| 2026-04-21 10:58 | 47.63398 | 4.05646 | 40089 ft | 456 kts | 333° |
| 2026-04-21 10:58 | 47.69178 | 4.01772 | 40097 ft | 456 kts | 333° |
| 2026-04-21 10:59 | 47.74952 | 3.97893 | 40105 ft | 456 kts | 333° |
| 2026-04-21 10:59 | 47.80732 | 3.94001 | 40099 ft | 456 kts | 333° |
| 2026-04-21 11:00 | 47.86513 | 3.90099 | 40105 ft | 456 kts | 333° |
| 2026-04-21 11:00 | 47.92295 | 3.86187 | 40117 ft | 456 kts | 333° |
| 2026-04-21 11:01 | 47.98078 | 3.82264 | 40108 ft | 456 kts | 333° |
| 2026-04-21 11:01 | 48.03863 | 3.78330 | 40119 ft | 458 kts | 333° |
| 2026-04-21 11:02 | 48.12496 | 3.72367 | 40144 ft | 457 kts | 329° |
| 2026-04-21 11:02 | 48.17631 | 3.66901 | 40138 ft | 452 kts | 314° |
| 2026-04-21 11:03 | 48.22027 | 3.60157 | 40137 ft | 453 kts | 312° |
| 2026-04-21 11:03 | 48.26288 | 3.53193 | 40146 ft | 453 kts | 311° |
| 2026-04-21 11:04 | 48.30532 | 3.46193 | 40144 ft | 453 kts | 311° |
| 2026-04-21 11:04 | 48.34786 | 3.39206 | 40159 ft | 453 kts | 311° |
| 2026-04-21 11:05 | 48.39168 | 3.32387 | 40154 ft | 454 kts | 318° |
| 2026-04-21 11:05 | 48.44467 | 3.27193 | 40156 ft | 458 kts | 333° |
| 2026-04-21 11:06 | 48.50297 | 3.23255 | 40153 ft | 460 kts | 335° |
| 2026-04-21 11:06 | 48.56211 | 3.19523 | 40159 ft | 460 kts | 335° |
| 2026-04-21 11:07 | 48.61125 | 3.16424 | 40184 ft | 460 kts | 335° |
| 2026-04-21 11:07 | 48.67032 | 3.12655 | 40166 ft | 462 kts | 335° |
| 2026-04-21 11:08 | 48.72948 | 3.08848 | 40170 ft | 462 kts | 335° |
| 2026-04-21 11:08 | 48.78862 | 3.05027 | 40160 ft | 462 kts | 335° |
| 2026-04-21 11:09 | 48.84717 | 3.01038 | 40179 ft | 460 kts | 329° |
| 2026-04-21 11:09 | 48.90303 | 2.96331 | 40181 ft | 459 kts | 328° |
| 2026-04-21 11:10 | 48.95844 | 2.91496 | 40181 ft | 459 kts | 328° |
| 2026-04-21 11:10 | 49.01378 | 2.86624 | 40181 ft | 459 kts | 328° |
| 2026-04-21 11:11 | 49.06908 | 2.81752 | 40194 ft | 459 kts | 328° |
| 2026-04-21 11:11 | 49.12450 | 2.76865 | 40186 ft | 461 kts | 328° |
| 2026-04-21 11:12 | 49.17999 | 2.71961 | 40191 ft | 461 kts | 328° |
| 2026-04-21 11:12 | 49.23515 | 2.67075 | 40196 ft | 461 kts | 328° |
| 2026-04-21 11:13 | 49.29092 | 2.62122 | 40203 ft | 461 kts | 328° |
| 2026-04-21 11:13 | 49.34635 | 2.57185 | 40204 ft | 461 kts | 328° |
| 2026-04-21 11:14 | 49.40145 | 2.52265 | 40205 ft | 461 kts | 328° |
| 2026-04-21 11:14 | 49.45692 | 2.47299 | 40210 ft | 461 kts | 328° |
| 2026-04-21 11:15 | 49.51160 | 2.42158 | 40221 ft | 460 kts | 322° |
| 2026-04-21 11:15 | 49.56136 | 2.35955 | 40212 ft | 461 kts | 319° |
| 2026-04-21 11:16 | 49.61010 | 2.29515 | 40215 ft | 462 kts | 318° |
| 2026-04-21 11:16 | 49.65863 | 2.23019 | 40207 ft | 462 kts | 318° |
| 2026-04-21 11:17 | 49.70708 | 2.16532 | 40218 ft | 461 kts | 318° |
| 2026-04-21 11:17 | 49.75556 | 2.10041 | 40225 ft | 461 kts | 318° |
| 2026-04-21 11:18 | 49.80413 | 2.03527 | 40228 ft | 462 kts | 318° |
| 2026-04-21 11:18 | 49.85271 | 1.96993 | 40232 ft | 462 kts | 318° |
| 2026-04-21 11:19 | 49.90125 | 1.90445 | 40238 ft | 462 kts | 318° |
| 2026-04-21 11:19 | 49.94974 | 1.83886 | 40239 ft | 462 kts | 318° |
| 2026-04-21 11:20 | 49.99792 | 1.77350 | 40241 ft | 463 kts | 318° |
| 2026-04-21 11:20 | 50.04648 | 1.70744 | 40241 ft | 464 kts | 318° |
| 2026-04-21 11:21 | 50.09502 | 1.64133 | 40244 ft | 464 kts | 318° |
| 2026-04-21 11:21 | 50.14371 | 1.57532 | 40245 ft | 464 kts | 318° |
| 2026-04-21 11:22 | 50.19238 | 1.50924 | 40254 ft | 464 kts | 318° |
| 2026-04-21 11:22 | 50.24108 | 1.44286 | 40253 ft | 465 kts | 318° |
| 2026-04-21 11:23 | 50.28981 | 1.37621 | 40245 ft | 465 kts | 318° |
| 2026-04-21 11:23 | 50.33849 | 1.30944 | 40260 ft | 465 kts | 318° |
| 2026-04-21 11:24 | 50.38710 | 1.24257 | 40261 ft | 465 kts | 318° |
| 2026-04-21 11:24 | 50.43566 | 1.17560 | 40264 ft | 465 kts | 318° |
| 2026-04-21 11:25 | 50.48423 | 1.10840 | 40268 ft | 466 kts | 318° |
| 2026-04-21 11:25 | 50.53307 | 1.04119 | 40274 ft | 466 kts | 320° |
| 2026-04-21 11:26 | 50.58395 | 0.97786 | 40274 ft | 466 kts | 322° |
| 2026-04-21 11:26 | 50.63545 | 0.91567 | 40271 ft | 466 kts | 321° |
| 2026-04-21 11:27 | 50.68658 | 0.85289 | 40280 ft | 465 kts | 321° |
| 2026-04-21 11:27 | 50.73710 | 0.78998 | 40285 ft | 466 kts | 321° |
| 2026-04-21 11:28 | 50.78826 | 0.72589 | 40287 ft | 466 kts | 321° |
| 2026-04-21 11:28 | 50.83874 | 0.66247 | 40287 ft | 466 kts | 321° |
| 2026-04-21 11:29 | 50.88944 | 0.59864 | 40357 ft | 466 kts | 321° |
| 2026-04-21 11:29 | 50.94018 | 0.53460 | 40425 ft | 467 kts | 321° |
| 2026-04-21 11:30 | 50.99096 | 0.47039 | 40486 ft | 466 kts | 321° |
| 2026-04-21 11:30 | 51.04163 | 0.40599 | 40557 ft | 466 kts | 321° |
| 2026-04-21 11:31 | 51.09224 | 0.34152 | 40603 ft | 466 kts | 321° |
| 2026-04-21 11:31 | 51.11740 | 0.30940 | 40336 ft | 461 kts | 321° |
| 2026-04-21 11:31 | 51.14240 | 0.27745 | 39712 ft | 461 kts | 320° |
| 2026-04-21 11:32 | 51.16738 | 0.24545 | 39098 ft | 460 kts | 320° |
| 2026-04-21 11:32 | 51.19226 | 0.21356 | 38464 ft | 456 kts | 320° |
| 2026-04-21 11:32 | 51.21668 | 0.18222 | 38188 ft | 445 kts | 320° |
| 2026-04-21 11:32 | 51.24049 | 0.15163 | 37952 ft | 434 kts | 320° |
| 2026-04-21 11:33 | 51.26369 | 0.12178 | 37729 ft | 423 kts | 320° |
| 2026-04-21 11:33 | 51.28632 | 0.09262 | 37430 ft | 414 kts | 320° |
| 2026-04-21 11:33 | 51.30721 | 0.06182 | 37046 ft | 406 kts | 312° |
| 2026-04-21 11:33 | 51.32447 | 0.02657 | 36651 ft | 399 kts | 303° |
| 2026-04-21 11:34 | 51.33728 | -0.01244 | 36223 ft | 394 kts | 293° |
| 2026-04-21 11:34 | 51.34585 | -0.05374 | 35846 ft | 390 kts | 288° |
| 2026-04-21 11:34 | 51.35300 | -0.09532 | 35505 ft | 384 kts | 287° |
| 2026-04-21 11:34 | 51.35975 | -0.13572 | 35177 ft | 378 kts | 288° |
| 2026-04-21 11:35 | 51.36648 | -0.17604 | 34836 ft | 372 kts | 288° |
| 2026-04-21 11:35 | 51.37309 | -0.21572 | 34504 ft | 366 kts | 288° |
| 2026-04-21 11:35 | 51.37969 | -0.25533 | 34145 ft | 361 kts | 288° |
| 2026-04-21 11:35 | 51.38609 | -0.29384 | 33709 ft | 356 kts | 288° |
| 2026-04-21 11:36 | 51.39242 | -0.33193 | 33249 ft | 352 kts | 288° |
| 2026-04-21 11:36 | 51.39868 | -0.36968 | 32801 ft | 349 kts | 288° |
| 2026-04-21 11:36 | 51.40478 | -0.40658 | 32373 ft | 345 kts | 288° |
| 2026-04-21 11:36 | 51.41085 | -0.44338 | 31944 ft | 341 kts | 288° |
| 2026-04-21 11:37 | 51.41689 | -0.48003 | 31532 ft | 337 kts | 288° |
| 2026-04-21 11:37 | 51.42283 | -0.51616 | 31124 ft | 334 kts | 288° |
| 2026-04-21 11:37 | 51.42869 | -0.55189 | 30715 ft | 330 kts | 288° |
| 2026-04-21 11:37 | 51.43448 | -0.58728 | 30295 ft | 326 kts | 288° |
| 2026-04-21 11:38 | 51.44021 | -0.62236 | 29738 ft | 325 kts | 288° |
| 2026-04-21 11:38 | 51.44594 | -0.65744 | 29180 ft | 325 kts | 288° |
| 2026-04-21 11:38 | 51.45163 | -0.69243 | 28626 ft | 324 kts | 288° |
| 2026-04-21 11:38 | 51.45731 | -0.72739 | 28089 ft | 324 kts | 288° |
| 2026-04-21 11:39 | 51.46298 | -0.76238 | 27556 ft | 324 kts | 288° |
| 2026-04-21 11:39 | 51.46864 | -0.79739 | 27025 ft | 324 kts | 288° |
| 2026-04-21 11:39 | 51.47427 | -0.83234 | 26531 ft | 324 kts | 288° |
| 2026-04-21 11:39 | 51.47989 | -0.86721 | 26016 ft | 323 kts | 288° |
| 2026-04-21 11:40 | 51.48555 | -0.90238 | 25526 ft | 334 kts | 288° |
| 2026-04-21 11:40 | 51.49174 | -0.94050 | 25011 ft | 372 kts | 288° |
| 2026-04-21 11:40 | 51.49853 | -0.98256 | 24487 ft | 402 kts | 287° |
| 2026-04-21 11:40 | 51.50552 | -1.02646 | 23994 ft | 409 kts | 287° |
| 2026-04-21 11:41 | 51.51250 | -1.07064 | 23454 ft | 408 kts | 287° |
| 2026-04-21 11:41 | 51.51947 | -1.11478 | 22889 ft | 406 kts | 287° |
| 2026-04-21 11:41 | 51.52640 | -1.15869 | 22371 ft | 406 kts | 287° |
| 2026-04-21 11:41 | 51.53282 | -1.20292 | 21843 ft | 407 kts | 284° |
| 2026-04-21 11:42 | 51.53794 | -1.24762 | 21320 ft | 408 kts | 283° |
| 2026-04-21 11:42 | 51.54287 | -1.29193 | 20814 ft | 408 kts | 283° |
| 2026-04-21 11:42 | 51.54804 | -1.33749 | 20304 ft | 409 kts | 283° |
| 2026-04-21 11:42 | 51.55321 | -1.38246 | 19789 ft | 409 kts | 283° |
| 2026-04-21 11:43 | 51.55836 | -1.42711 | 19239 ft | 404 kts | 283° |
| 2026-04-21 11:43 | 51.56340 | -1.47060 | 18696 ft | 398 kts | 283° |
| 2026-04-21 11:43 | 51.56843 | -1.51408 | 18097 ft | 393 kts | 283° |
| 2026-04-21 11:43 | 51.57341 | -1.55702 | 17470 ft | 389 kts | 282° |
| 2026-04-21 11:44 | 51.57832 | -1.59952 | 16883 ft | 385 kts | 282° |
| 2026-04-21 11:44 | 51.58325 | -1.64228 | 16279 ft | 382 kts | 282° |
| 2026-04-21 11:44 | 51.58778 | -1.68415 | 15702 ft | 379 kts | 279° |
| 2026-04-21 11:44 | 51.59038 | -1.72618 | 15134 ft | 379 kts | 273° |
| 2026-04-21 11:45 | 51.58835 | -1.76959 | 14546 ft | 400 kts | 259° |
| 2026-04-21 11:45 | 51.58149 | -1.81226 | 13979 ft | 397 kts | 253° |
| 2026-04-21 11:45 | 51.57336 | -1.85431 | 13359 ft | 391 kts | 251° |
| 2026-04-21 11:45 | 51.56506 | -1.89573 | 12759 ft | 387 kts | 251° |
| 2026-04-21 11:46 | 51.55678 | -1.93653 | 12167 ft | 382 kts | 251° |
| 2026-04-21 11:46 | 51.54854 | -1.97685 | 11582 ft | 377 kts | 251° |
| 2026-04-21 11:46 | 51.54049 | -2.01666 | 11003 ft | 372 kts | 253° |
| 2026-04-21 11:46 | 51.53386 | -2.05656 | 10521 ft | 366 kts | 257° |
| 2026-04-21 11:47 | 51.52910 | -2.09605 | 10293 ft | 353 kts | 260° |
| 2026-04-21 11:47 | 51.52503 | -2.13368 | 10005 ft | 329 kts | 260° |
| 2026-04-21 11:47 | 51.52131 | -2.16864 | 9561 ft | 309 kts | 260° |
| 2026-04-21 11:47 | 51.51876 | -2.20259 | 8753 ft | 305 kts | 267° |
| 2026-04-21 11:48 | 51.51833 | -2.23636 | 8165 ft | 301 kts | 270° |
| 2026-04-21 11:48 | 51.51834 | -2.26979 | 7875 ft | 293 kts | 270° |
| 2026-04-21 11:48 | 51.51842 | -2.30140 | 7633 ft | 274 kts | 270° |
| 2026-04-21 11:48 | 51.51852 | -2.33138 | 7391 ft | 266 kts | 270° |
| 2026-04-21 11:49 | 51.51862 | -2.36096 | 7145 ft | 264 kts | 270° |
| 2026-04-21 11:49 | 51.51872 | -2.39047 | 6909 ft | 264 kts | 270° |
| 2026-04-21 11:49 | 51.51884 | -2.41985 | 6656 ft | 263 kts | 270° |
| 2026-04-21 11:49 | 51.51897 | -2.44924 | 6388 ft | 264 kts | 270° |
| 2026-04-21 11:50 | 51.51908 | -2.47863 | 6126 ft | 262 kts | 270° |
| 2026-04-21 11:50 | 51.51916 | -2.50789 | 5862 ft | 262 kts | 270° |
| 2026-04-21 11:50 | 51.51923 | -2.53716 | 5606 ft | 262 kts | 270° |
| 2026-04-21 11:50 | 51.51933 | -2.56635 | 5348 ft | 261 kts | 270° |
| 2026-04-21 11:51 | 51.51944 | -2.59539 | 5083 ft | 259 kts | 270° |
| 2026-04-21 11:51 | 51.51949 | -2.62426 | 4824 ft | 258 kts | 270° |
| 2026-04-21 11:51 | 51.51947 | -2.65312 | 4565 ft | 259 kts | 270° |
| 2026-04-21 11:51 | 51.51937 | -2.68199 | 4304 ft | 257 kts | 270° |
| 2026-04-21 11:52 | 51.51921 | -2.71014 | 4103 ft | 255 kts | 270° |
| 2026-04-21 11:52 | 51.51756 | -2.73878 | 3928 ft | 255 kts | 258° |
| 2026-04-21 11:52 | 51.51485 | -2.75706 | 3804 ft | 254 kts | 255° |
| 2026-04-21 11:52 | 51.51021 | -2.78441 | 3634 ft | 254 kts | 254° |
| 2026-04-21 11:53 | 51.50545 | -2.81166 | 3508 ft | 254 kts | 254° |
| 2026-04-21 11:53 | 51.50065 | -2.83887 | 3472 ft | 253 kts | 254° |
| 2026-04-21 11:53 | 51.49589 | -2.86542 | 3374 ft | 241 kts | 254° |
| 2026-04-21 11:53 | 51.48990 | -2.89871 | 3236 ft | 231 kts | 253° |
| 2026-04-21 11:54 | 51.48696 | -2.91544 | 3170 ft | 231 kts | 254° |
| 2026-04-21 11:54 | 51.48257 | -2.94022 | 3086 ft | 231 kts | 253° |
| 2026-04-21 11:54 | 51.47817 | -2.96493 | 3008 ft | 229 kts | 254° |
| 2026-04-21 11:54 | 51.47378 | -2.98937 | 3013 ft | 228 kts | 254° |
| 2026-04-21 11:55 | 51.46702 | -3.01226 | 2993 ft | 228 kts | 230° |
| 2026-04-21 11:55 | 51.45497 | -3.02700 | 2996 ft | 218 kts | 194° |
| 2026-04-21 11:55 | 51.44043 | -3.02704 | 3011 ft | 203 kts | 156° |
| 2026-04-21 11:55 | 51.42698 | -3.02120 | 2993 ft | 207 kts | 165° |
| 2026-04-21 11:56 | 51.41244 | -3.02029 | 2995 ft | 210 kts | 174° |
| 2026-04-21 11:56 | 51.39829 | -3.01720 | 2990 ft | 197 kts | 155° |
| 2026-04-21 11:56 | 51.38781 | -3.00614 | 2998 ft | 172 kts | 122° |
| 2026-04-21 11:56 | 51.38252 | -2.98973 | 3004 ft | 164 kts | 106° |
| 2026-04-21 11:57 | 51.37884 | -2.97248 | 2998 ft | 164 kts | 104° |
| 2026-04-21 11:57 | 51.37549 | -2.95505 | 2993 ft | 163 kts | 102° |
| 2026-04-21 11:57 | 51.37442 | -2.93716 | 2997 ft | 161 kts | 86° |
| 2026-04-21 11:57 | 51.37497 | -2.92020 | 2999 ft | 145 kts | 85° |
| 2026-04-21 11:58 | 51.37543 | -2.90437 | 2837 ft | 140 kts | 84° |
| 2026-04-21 11:58 | 51.37608 | -2.88882 | 2622 ft | 140 kts | 84° |
| 2026-04-21 11:58 | 51.37665 | -2.87362 | 2436 ft | 132 kts | 84° |
| 2026-04-21 11:58 | 51.37719 | -2.85953 | 2241 ft | 123 kts | 84° |
| 2026-04-21 11:59 | 51.37773 | -2.84590 | 2085 ft | 123 kts | 84° |
| 2026-04-21 11:59 | 51.37825 | -2.83223 | 1915 ft | 122 kts | 83° |
| 2026-04-21 11:59 | 51.37877 | -2.81883 | 1749 ft | 120 kts | 83° |
| 2026-04-21 11:59 | 51.37930 | -2.80561 | 1555 ft | 118 kts | 83° |
| 2026-04-21 12:00 | 51.37980 | -2.79249 | 1393 ft | 118 kts | 83° |
| 2026-04-21 12:00 | 51.38032 | -2.77939 | 1230 ft | 118 kts | 83° |
| 2026-04-21 12:00 | 51.38083 | -2.76610 | 1068 ft | 121 kts | 83° |
| 2026-04-21 12:00 | 51.38136 | -2.75268 | 903 ft | 121 kts | 83° |
| 2026-04-21 12:01 | 51.38189 | -2.73911 | 738 ft | 125 kts | 83° |
| 2026-04-21 12:01 | 51.38238 | -2.72551 | 640 ft | 108 kts | 80° |
| 2026-04-21 12:01 | 51.38277 | -2.71658 | 621 ft | 65 kts | 86° |
| 2026-04-21 12:01 | 51.38301 | -2.71047 | 609 ft | 33 kts | 86° |
| 2026-04-21 12:02 | 51.38311 | -2.70847 | 616 ft | 14 kts | 79° |
| 2026-04-21 12:02 | 51.38394 | -2.70731 | 628 ft | 11 kts | 22° |
| 2026-04-21 12:02 | 51.38443 | -2.70730 | 623 ft | 6 kts | 332° |
| 2026-04-21 12:03 | 51.38465 | -2.70816 | 627 ft | 15 kts | 275° |
| 2026-04-21 12:03 | 51.38462 | -2.71005 | 621 ft | 18 kts | 268° |
| 2026-04-21 12:03 | 51.38454 | -2.71191 | 633 ft | 8 kts | 266° |
| 2026-04-21 12:03 | 51.38450 | -2.71284 | 632 ft | 10 kts | 266° |
| 2026-04-21 12:04 | 51.38444 | -2.71435 | 626 ft | 15 kts | 266° |
| 2026-04-21 12:04 | 51.38455 | -2.71556 | 627 ft | 6 kts | 309° |
| 2026-04-21 12:04 | 51.38488 | -2.71584 | 630 ft | 4 kts | 343° |
| 2026-04-21 12:04 | 51.38506 | -2.71588 | 632 ft | 3 kts | 356° |
| 2026-04-21 12:05 | 51.38519 | -2.71592 | 626 ft | 4 kts | 351° |
| 2026-04-21 12:05 | 51.38532 | -2.71594 | 630 ft | 0 kts | 354° |